Moscow, Russia
Current Conditions -  °F | °C
As of 11:30 AM on Saturday 22 Nov 2014 (Local Time) from UUWW Reporting Station
Clear Clear  
Wind Chill: 21°   Ceiling: Unl
Heat Index: 28°   Visibility: 6mi
Dew Point: 19°   Wind: 7mph
Humidity: 69%   Direction: 230°SW
Pressure: 30.42"   Gusts: NA
Location:  55.75°N, 37.62°E
Report Text: UUWW 220830Z 23003MPS CAVOK M02/M07 Q1030 24190060 NOSIG
Loading
Personal Weather Stations






























Interactive Weather Map New forecast layout! Learn more

10-Day Weather Forecast

Advertisements
Track Severe Weather on mobile